EmailTwitter


Surface observations / United Kingdom / EGLL (03772)

Regions: Quebec | Canada | USA | Europe | France | UK | Elsewhere
Station
Display
Info & Location for EGLL (03772) | Help decoding METAR

Weather Conditions observed on 2018/02/24 at 17:50 UTC at LONDON/HEATHROW, UK (EGLL)

Temperature: 4.0 Celsius.

Dewpoint: -4.0 Celsius.

Relative Humidity: 56%

Windchill Factor: 0.

Winds: East at 20 km/h or 11 knots.

Mean Sea level Pressure: 102.20 kilopascals.

Horizontal visibility: 6.21 statute miles or 9.94 kilometers.

Coded METAR:

EGLL 241750Z AUTO 08011KT 9999 NCD 04/M04 Q1022 NOSIG=